createdAt,value
2023-04-17T00:00:37.883Z,9.74
2023-04-17T00:03:06.593Z,9.77
2023-04-17T00:05:34.999Z,9.74
2023-04-17T00:08:03.493Z,9.62
2023-04-17T00:10:31.967Z,9.77
2023-04-17T00:13:01.707Z,9.68
2023-04-17T00:15:29.902Z,9.60
2023-04-17T00:17:58.030Z,9.67
2023-04-17T00:20:26.257Z,9.51
2023-04-17T00:22:54.581Z,9.52
2023-04-17T00:25:22.724Z,9.33
2023-04-17T00:27:51.057Z,9.37
2023-04-17T00:30:20.940Z,9.34
2023-04-17T00:32:49.311Z,9.22
2023-04-17T00:35:17.906Z,9.35
2023-04-17T00:37:46.052Z,9.48
2023-04-17T00:40:15.596Z,9.53
2023-04-17T00:42:43.673Z,9.58
2023-04-17T00:45:12.367Z,9.58
2023-04-17T00:47:41.958Z,9.43
2023-04-17T00:50:11.242Z,9.43
2023-04-17T00:52:39.382Z,9.43
2023-04-17T00:55:10.934Z,9.46
2023-04-17T00:57:38.984Z,9.49
2023-04-17T01:00:09.716Z,9.59
2023-04-17T01:02:38.619Z,9.54
2023-04-17T01:05:09.074Z,9.65
2023-04-17T01:07:37.821Z,9.64
2023-04-17T01:10:06.574Z,9.69
2023-04-17T01:12:34.931Z,9.56
2023-04-17T01:15:02.994Z,9.71
2023-04-17T01:17:31.394Z,9.60
2023-04-17T01:19:59.814Z,9.59
2023-04-17T01:22:29.275Z,9.48
2023-04-17T01:24:58.924Z,9.42
2023-04-17T01:27:27.341Z,9.43
2023-04-17T01:29:55.752Z,9.41
2023-04-17T01:32:24.383Z,9.45
2023-04-17T01:34:52.501Z,9.40
2023-04-17T01:37:20.522Z,9.45
2023-04-17T01:39:48.835Z,9.40
2023-04-17T01:42:18.572Z,9.27
2023-04-17T01:44:46.716Z,9.15
2023-04-17T01:47:14.895Z,9.07
2023-04-17T01:49:42.988Z,9.12
2023-04-17T01:52:11.100Z,9.26
2023-04-17T01:54:39.362Z,9.14
2023-04-17T01:57:07.438Z,9.10
2023-04-17T01:59:38.021Z,9.17
2023-04-17T02:02:06.430Z,9.08
2023-04-17T02:04:34.938Z,8.98
2023-04-17T02:07:03.173Z,9.03
2023-04-17T02:09:31.352Z,9.00
2023-04-17T02:11:59.425Z,8.91
2023-04-17T02:14:27.611Z,8.89
2023-04-17T02:16:57.237Z,8.97
2023-04-17T02:19:25.680Z,8.88
2023-04-17T02:21:53.759Z,8.79
2023-04-17T02:24:22.070Z,8.91
2023-04-17T02:26:50.096Z,8.94
2023-04-17T02:29:18.285Z,9.06
2023-04-17T02:31:46.625Z,8.96
2023-04-17T02:34:17.027Z,9.00
2023-04-17T02:36:45.158Z,9.00
2023-04-17T02:39:13.344Z,8.98
2023-04-17T02:41:41.671Z,9.09
2023-04-17T02:44:10.110Z,9.16
2023-04-17T02:46:38.451Z,9.16
2023-04-17T02:49:06.872Z,9.12
2023-04-17T02:51:36.628Z,9.03
2023-04-17T02:54:04.717Z,8.99
2023-04-17T02:56:32.880Z,8.94
2023-04-17T02:59:01.132Z,9.08
2023-04-17T03:01:30.186Z,9.06
2023-04-17T03:03:59.024Z,9.00
2023-04-17T03:06:27.660Z,8.82
2023-04-17T03:08:57.423Z,8.75
2023-04-17T03:11:25.638Z,8.61
2023-04-17T03:13:55.302Z,8.65
2023-04-17T03:16:23.651Z,8.65
2023-04-17T03:18:51.775Z,8.66
2023-04-17T03:21:19.854Z,8.69
2023-04-17T03:23:47.912Z,8.78
2023-04-17T03:26:18.818Z,8.77
2023-04-17T03:28:46.804Z,8.82
2023-04-17T03:31:15.333Z,8.82
2023-04-17T03:33:43.623Z,8.89
2023-04-17T03:36:11.966Z,8.86
2023-04-17T03:38:39.982Z,8.84
2023-04-17T03:41:08.294Z,9.02
2023-04-17T03:43:38.177Z,9.03
2023-04-17T03:46:06.944Z,9.04
2023-04-17T03:48:35.418Z,9.02
2023-04-17T03:51:04.687Z,9.07
2023-04-17T03:53:32.863Z,9.10
2023-04-17T03:56:01.728Z,9.16
2023-04-17T03:58:29.938Z,9.09
2023-04-17T04:01:02.317Z,9.14
2023-04-17T04:03:30.662Z,9.13
2023-04-17T04:05:59.037Z,9.19
2023-04-17T04:08:27.075Z,9.18
2023-04-17T04:10:56.681Z,9.21
2023-04-17T04:13:24.880Z,9.16
2023-04-17T04:15:52.974Z,9.07
2023-04-17T04:18:22.481Z,9.05
2023-04-17T04:20:50.855Z,8.86
2023-04-17T04:23:21.185Z,8.80
2023-04-17T04:25:49.801Z,8.83
2023-04-17T04:28:18.632Z,8.85
2023-04-17T04:30:51.135Z,8.94
2023-04-17T04:33:20.658Z,9.01
2023-04-17T04:35:52.081Z,8.98
2023-04-17T04:38:20.240Z,9.06
2023-04-17T04:40:52.751Z,9.04
2023-04-17T04:43:22.493Z,9.05
2023-04-17T04:45:51.032Z,9.18
2023-04-17T04:48:19.055Z,9.24
2023-04-17T04:50:47.450Z,9.30
2023-04-17T04:53:17.053Z,9.31
2023-04-17T04:55:45.187Z,9.29
2023-04-17T04:58:13.501Z,9.34
2023-04-17T05:00:42.026Z,9.15
2023-04-17T05:03:10.620Z,9.12
2023-04-17T05:05:38.858Z,8.95
2023-04-17T05:08:07.485Z,8.91
2023-04-17T05:10:37.158Z,9.06
2023-04-17T05:13:05.259Z,9.10
2023-04-17T05:15:33.362Z,9.06
2023-04-17T05:18:01.574Z,8.88
2023-04-17T05:20:29.982Z,8.90
2023-04-17T05:22:58.660Z,8.88
2023-04-17T05:25:27.096Z,8.99
2023-04-17T05:27:58.536Z,8.92
2023-04-17T05:30:26.827Z,8.93
2023-04-17T05:32:55.290Z,8.98
2023-04-17T05:35:23.521Z,8.93
2023-04-17T05:37:51.828Z,8.96
2023-04-17T05:40:20.092Z,9.03
2023-04-17T05:42:48.229Z,9.01
2023-04-17T05:45:19.346Z,9.05
2023-04-17T05:47:47.466Z,9.05
2023-04-17T05:50:15.691Z,9.03
2023-04-17T05:52:43.728Z,9.08
2023-04-17T05:55:11.934Z,9.12
2023-04-17T05:57:40.105Z,9.08
2023-04-17T06:00:13.178Z,9.14
2023-04-17T06:02:44.106Z,9.18
2023-04-17T06:05:12.500Z,9.21
2023-04-17T06:07:40.947Z,9.21
2023-04-17T06:10:10.111Z,9.21
2023-04-17T06:12:38.740Z,9.22
2023-04-17T06:15:09.477Z,9.22
2023-04-17T06:17:38.347Z,9.28
2023-04-17T06:20:10.615Z,9.23
2023-04-17T06:22:39.333Z,9.27
2023-04-17T06:25:08.631Z,9.31
2023-04-17T06:27:38.766Z,9.34
2023-04-17T06:30:07.973Z,9.38
2023-04-17T06:32:36.283Z,9.42
2023-04-17T06:35:04.558Z,9.38
2023-04-17T06:37:34.032Z,9.48
2023-04-17T06:40:02.141Z,9.52
2023-04-17T06:42:30.273Z,9.44
2023-04-17T06:44:58.307Z,9.53
2023-04-17T06:47:26.785Z,9.54
2023-04-17T06:49:58.124Z,9.73
2023-04-17T06:52:26.334Z,9.69
2023-04-17T06:54:56.726Z,9.66
2023-04-17T06:57:24.773Z,9.75
2023-04-17T06:59:52.884Z,9.74
2023-04-17T07:02:21.252Z,9.74
2023-04-17T07:04:50.457Z,9.78
2023-04-17T07:07:18.599Z,9.80
2023-04-17T07:09:48.258Z,9.88
2023-04-17T07:12:18.001Z,9.82
2023-04-17T07:14:46.336Z,9.83
2023-04-17T07:17:14.768Z,9.82
2023-04-17T07:19:42.966Z,9.86
2023-04-17T07:22:11.309Z,9.89
2023-04-17T07:24:39.336Z,9.95
2023-04-17T07:27:08.117Z,10.07
2023-04-17T07:29:38.028Z,10.01
2023-04-17T07:32:07.087Z,10.03
2023-04-17T07:34:35.774Z,10.10
2023-04-17T07:37:04.100Z,10.13
2023-04-17T07:39:32.282Z,10.22
2023-04-17T07:42:03.203Z,10.25
2023-04-17T07:44:31.208Z,10.21
2023-04-17T07:47:00.914Z,10.26
2023-04-17T07:49:29.131Z,10.24
2023-04-17T07:51:57.443Z,10.25
2023-04-17T07:54:25.826Z,10.17
2023-04-17T07:56:58.375Z,10.28
2023-04-17T07:59:26.521Z,10.32
2023-04-17T08:01:55.044Z,10.37
2023-04-17T08:04:25.292Z,10.60
2023-04-17T08:06:53.621Z,10.53
2023-04-17T08:09:22.762Z,10.67
2023-04-17T08:11:57.494Z,10.78
2023-04-17T08:14:26.231Z,10.94
2023-04-17T08:16:54.511Z,10.98
2023-04-17T08:19:22.595Z,11.06
2023-04-17T08:21:52.336Z,11.35
2023-04-17T08:24:20.601Z,11.28
2023-04-17T08:26:49.246Z,11.27
2023-04-17T08:29:18.451Z,11.45
2023-04-17T08:31:47.659Z,11.46
2023-04-17T08:34:15.870Z,11.43
2023-04-17T08:36:44.184Z,11.54
2023-04-17T08:39:15.413Z,11.67
2023-04-17T08:41:50.591Z,11.82
2023-04-17T08:44:21.665Z,11.70
2023-04-17T08:46:51.006Z,11.78
2023-04-17T08:49:21.434Z,11.83
2023-04-17T08:51:49.789Z,11.68
2023-04-17T08:54:19.822Z,11.90
2023-04-17T08:56:48.427Z,11.83
2023-04-17T08:59:17.261Z,11.61
2023-04-17T09:02:04.431Z,11.53
2023-04-17T09:04:38.356Z,11.50
2023-04-17T09:07:06.821Z,11.72
2023-04-17T09:09:53.907Z,11.75
2023-04-17T09:12:24.152Z,12.06
2023-04-17T09:14:52.878Z,12.47
2023-04-17T09:17:23.076Z,12.53
2023-04-17T09:20:07.935Z,12.36
2023-04-17T09:22:37.540Z,12.55
2023-04-17T09:25:17.540Z,12.69
2023-04-17T09:27:45.886Z,12.51
2023-04-17T09:30:15.245Z,12.79
2023-04-17T09:32:44.252Z,13.18
2023-04-17T09:35:14.916Z,13.06
2023-04-17T09:37:53.199Z,13.00
2023-04-17T09:40:25.201Z,13.07
2023-04-17T09:43:01.272Z,12.97
2023-04-17T09:45:35.580Z,12.79
2023-04-17T09:48:08.146Z,12.69
2023-04-17T09:50:38.638Z,12.81
2023-04-17T09:53:09.688Z,12.83
2023-04-17T09:55:43.681Z,13.11
2023-04-17T09:58:12.628Z,13.11
2023-04-17T10:00:44.276Z,13.24
2023-04-17T10:03:18.348Z,13.34
2023-04-17T10:05:47.547Z,13.29
2023-04-17T10:08:16.591Z,13.04
2023-04-17T10:10:46.780Z,13.09
2023-04-17T10:13:15.170Z,13.01
2023-04-17T10:15:43.407Z,13.02
2023-04-17T10:18:23.685Z,13.07
2023-04-17T10:20:54.020Z,12.98
2023-04-17T10:23:31.497Z,12.69
2023-04-17T10:26:42.535Z,12.58
2023-04-17T10:29:12.962Z,12.28
2023-04-17T10:32:19.868Z,12.33
2023-04-17T10:34:48.476Z,12.54
2023-04-17T10:37:19.480Z,12.32
2023-04-17T10:39:52.725Z,12.25
2023-04-17T10:42:21.683Z,12.09
2023-04-17T10:44:56.984Z,12.44
2023-04-17T10:47:32.795Z,12.24
2023-04-17T10:50:05.544Z,12.27
2023-04-17T10:52:42.252Z,12.21
2023-04-17T10:55:13.702Z,12.24
2023-04-17T10:57:56.413Z,12.52
2023-04-17T11:00:33.455Z,12.59
2023-04-17T11:03:03.729Z,12.95
2023-04-17T11:05:32.824Z,13.02
2023-04-17T11:08:01.222Z,12.91
2023-04-17T11:10:29.541Z,12.95
2023-04-17T11:12:57.965Z,12.90
2023-04-17T11:15:31.718Z,12.96
2023-04-17T11:18:02.434Z,12.93
2023-04-17T11:20:32.115Z,12.88
2023-04-17T11:23:02.786Z,12.92
2023-04-17T11:25:33.985Z,12.92
2023-04-17T11:28:04.829Z,12.93
2023-04-17T11:30:35.706Z,12.98
2023-04-17T11:33:06.344Z,13.05
2023-04-17T11:35:36.164Z,13.26
2023-04-17T11:38:21.063Z,13.38
2023-04-17T11:40:52.759Z,13.69
2023-04-17T11:43:22.368Z,13.75
2023-04-17T11:45:53.984Z,13.62
2023-04-17T11:48:26.188Z,14.01
2023-04-17T11:50:57.491Z,13.81
2023-04-17T11:53:27.417Z,13.92
2023-04-17T11:56:15.960Z,13.84
2023-04-17T11:58:51.743Z,13.82
2023-04-17T12:01:24.914Z,14.06
2023-04-17T12:03:53.946Z,14.07
2023-04-17T12:06:22.662Z,14.07
2023-04-17T12:08:52.438Z,14.18
2023-04-17T12:11:30.851Z,14.02
2023-04-17T12:14:01.023Z,13.30
2023-04-17T12:16:31.714Z,13.14
2023-04-17T12:19:00.015Z,13.09
2023-04-17T12:21:28.740Z,13.11
2023-04-17T12:23:57.237Z,13.24
2023-04-17T12:26:26.315Z,13.52
2023-04-17T12:28:58.104Z,13.43
2023-04-17T12:31:26.210Z,13.66
2023-04-17T12:33:56.130Z,13.30
2023-04-17T12:36:24.251Z,13.25
2023-04-17T12:38:53.018Z,13.25
2023-04-17T12:41:21.749Z,13.50
2023-04-17T12:43:50.553Z,13.54
2023-04-17T12:46:19.113Z,13.77
2023-04-17T12:48:47.601Z,13.73
2023-04-17T12:51:17.289Z,13.87
2023-04-17T12:53:45.640Z,13.82
2023-04-17T12:56:14.309Z,13.84
2023-04-17T12:58:42.429Z,13.92
2023-04-17T13:01:10.672Z,13.70
2023-04-17T13:03:39.162Z,13.89
2023-04-17T13:06:07.888Z,14.15
2023-04-17T13:08:37.940Z,14.78
2023-04-17T13:11:06.591Z,15.41
2023-04-17T13:13:34.660Z,15.98
2023-04-17T13:16:03.346Z,16.50
2023-04-17T13:18:31.847Z,16.00
2023-04-17T13:20:59.980Z,16.32
2023-04-17T13:23:28.281Z,15.94
2023-04-17T13:25:58.038Z,16.06
2023-04-17T13:28:26.278Z,16.05
2023-04-17T13:30:55.742Z,15.70
2023-04-17T13:33:24.111Z,15.52
2023-04-17T13:35:53.530Z,15.36
2023-04-17T13:38:21.616Z,15.17
2023-04-17T13:40:50.217Z,14.81
2023-04-17T13:43:19.960Z,15.12
2023-04-17T13:45:49.818Z,15.49
2023-04-17T13:48:17.990Z,15.38
2023-04-17T13:50:46.255Z,15.53
2023-04-17T13:53:14.585Z,15.45
2023-04-17T13:55:44.270Z,15.43
2023-04-17T13:58:13.472Z,15.22
2023-04-17T14:00:48.749Z,15.35
2023-04-17T14:03:16.978Z,15.43
2023-04-17T14:05:46.306Z,15.62
2023-04-17T14:08:14.455Z,14.75
2023-04-17T14:10:42.502Z,14.62
2023-04-17T14:13:12.187Z,14.57
2023-04-17T14:15:41.983Z,14.47
2023-04-17T14:18:12.067Z,14.54
2023-04-17T14:20:40.118Z,14.60
2023-04-17T14:23:08.346Z,14.45
2023-04-17T14:25:36.474Z,15.16
2023-04-17T14:28:04.757Z,15.74
2023-04-17T14:30:33.008Z,15.64
2023-04-17T14:33:01.393Z,15.26
2023-04-17T14:35:33.217Z,15.40
2023-04-17T14:38:05.048Z,14.93
2023-04-17T14:40:33.310Z,14.33
2023-04-17T14:43:01.489Z,14.31
2023-04-17T14:45:29.804Z,14.06
2023-04-17T14:47:58.222Z,14.05
2023-04-17T14:50:26.471Z,14.07
2023-04-17T14:52:58.661Z,14.13
2023-04-17T14:55:27.251Z,13.98
2023-04-17T14:57:56.101Z,14.05
2023-04-17T15:00:24.544Z,14.27
2023-04-17T15:02:53.029Z,14.31
2023-04-17T15:05:22.769Z,14.29
2023-04-17T15:07:51.414Z,14.00
2023-04-17T15:10:21.340Z,14.24
2023-04-17T15:12:49.447Z,14.10
2023-04-17T15:15:17.682Z,14.17
2023-04-17T15:17:45.810Z,14.09
2023-04-17T15:20:15.019Z,14.11
2023-04-17T15:22:44.048Z,14.06
2023-04-17T15:25:12.258Z,14.01
2023-04-17T15:27:41.726Z,14.13
2023-04-17T15:30:11.310Z,14.06
2023-04-17T15:32:41.852Z,13.79
2023-04-17T15:35:10.600Z,13.76
2023-04-17T15:37:39.983Z,13.79
2023-04-17T15:40:09.532Z,13.64
2023-04-17T15:42:38.120Z,13.71
2023-04-17T15:45:11.247Z,13.46
2023-04-17T15:47:39.730Z,13.73
2023-04-17T15:50:09.053Z,14.28
2023-04-17T15:52:37.393Z,14.66
2023-04-17T15:55:06.116Z,15.20
2023-04-17T15:57:34.233Z,15.67
2023-04-17T16:00:02.685Z,16.03
2023-04-17T16:02:32.422Z,16.11
2023-04-17T16:05:00.908Z,16.54
2023-04-17T16:07:29.154Z,16.31
2023-04-17T16:09:57.264Z,16.20
2023-04-17T16:12:25.652Z,15.86
2023-04-17T16:14:53.712Z,15.28
2023-04-17T16:17:21.933Z,15.04
2023-04-17T16:19:51.473Z,14.70
2023-04-17T16:22:20.161Z,14.75
2023-04-17T16:24:48.491Z,14.77
2023-04-17T16:27:16.717Z,14.56
2023-04-17T16:29:45.886Z,14.42
2023-04-17T16:32:14.976Z,14.26
2023-04-17T16:34:43.599Z,14.15
2023-04-17T16:37:14.946Z,14.18
2023-04-17T16:39:43.290Z,14.26
2023-04-17T16:42:11.437Z,14.39
2023-04-17T16:44:39.592Z,14.28
2023-04-17T16:47:13.438Z,14.09
2023-04-17T16:49:42.877Z,14.10
2023-04-17T16:52:13.024Z,14.00
2023-04-17T16:54:41.339Z,13.87
2023-04-17T16:57:10.267Z,13.83
2023-04-17T16:59:38.315Z,13.77
2023-04-17T17:02:07.863Z,13.73
2023-04-17T17:04:36.655Z,13.67
2023-04-17T17:07:04.890Z,13.64
2023-04-17T17:09:34.451Z,13.85
2023-04-17T17:12:02.673Z,13.96
2023-04-17T17:14:32.646Z,13.99
2023-04-17T17:17:00.820Z,13.89
2023-04-17T17:19:30.434Z,13.91
2023-04-17T17:21:59.082Z,13.90
2023-04-17T17:24:28.793Z,14.04
2023-04-17T17:26:58.654Z,13.83
2023-04-17T17:29:27.074Z,13.54
2023-04-17T17:31:56.875Z,13.44
2023-04-17T17:34:26.987Z,13.26
2023-04-17T17:36:55.622Z,13.24
2023-04-17T17:39:23.770Z,12.98
2023-04-17T17:41:52.202Z,13.07
2023-04-17T17:44:22.035Z,13.02
2023-04-17T17:46:51.452Z,12.99
2023-04-17T17:49:19.738Z,12.95
2023-04-17T17:51:48.244Z,12.84
2023-04-17T17:54:16.510Z,12.97
2023-04-17T17:56:44.881Z,13.14
2023-04-17T17:59:13.140Z,13.32
2023-04-17T18:01:42.649Z,13.31
2023-04-17T18:04:11.401Z,13.18
2023-04-17T18:06:41.178Z,13.00
2023-04-17T18:09:09.821Z,12.94
2023-04-17T18:11:38.394Z,12.84
2023-04-17T18:14:06.969Z,12.68
2023-04-17T18:16:37.276Z,12.47
2023-04-17T18:19:07.057Z,12.43
2023-04-17T18:21:35.420Z,12.47
2023-04-17T18:24:03.725Z,12.29
2023-04-17T18:26:33.664Z,12.35
2023-04-17T18:29:01.754Z,12.10
2023-04-17T18:31:30.122Z,12.13
2023-04-17T18:34:02.380Z,12.21
2023-04-17T18:36:32.267Z,12.15
2023-04-17T18:39:00.646Z,11.83
2023-04-17T18:41:28.788Z,11.71
2023-04-17T18:43:57.127Z,11.67
2023-04-17T18:46:27.206Z,11.88
2023-04-17T18:48:55.569Z,11.65
2023-04-17T18:51:23.624Z,11.68
2023-04-17T18:53:53.547Z,11.75
2023-04-17T18:56:22.928Z,11.81
2023-04-17T18:58:51.364Z,11.64
2023-04-17T19:01:19.729Z,11.76
2023-04-17T19:03:48.256Z,11.74
2023-04-17T19:06:16.522Z,11.60
2023-04-17T19:08:44.686Z,11.53
2023-04-17T19:11:14.192Z,11.47
2023-04-17T19:13:42.902Z,11.48
2023-04-17T19:16:11.499Z,11.41
2023-04-17T19:18:39.995Z,11.46
2023-04-17T19:21:08.470Z,11.31
2023-04-17T19:23:38.429Z,11.33
2023-04-17T19:26:06.841Z,11.29
2023-04-17T19:28:37.323Z,11.37
2023-04-17T19:31:06.434Z,11.25
2023-04-17T19:33:35.731Z,11.23
2023-04-17T19:36:04.451Z,11.11
2023-04-17T19:38:33.016Z,11.05
2023-04-17T19:41:17.466Z,11.01
2023-04-17T19:43:47.565Z,10.84
2023-04-17T19:46:16.077Z,10.79
2023-04-17T19:48:45.000Z,10.76
2023-04-17T19:51:14.554Z,10.68
2023-04-17T19:53:45.616Z,10.62
2023-04-17T19:56:16.058Z,10.59
2023-04-17T19:58:44.447Z,10.51
2023-04-17T20:01:14.408Z,10.61
2023-04-17T20:03:46.413Z,10.52
2023-04-17T20:06:15.465Z,10.54
2023-04-17T20:08:43.786Z,10.55
2023-04-17T20:11:12.368Z,10.52
2023-04-17T20:13:40.726Z,10.47
2023-04-17T20:16:11.255Z,10.48
2023-04-17T20:18:41.884Z,10.62
2023-04-17T20:21:10.026Z,10.54
2023-04-17T20:23:38.091Z,10.67
2023-04-17T20:26:08.257Z,10.64
2023-04-17T20:28:39.108Z,10.45
2023-04-17T20:31:08.808Z,10.50
2023-04-17T20:33:37.345Z,10.43
2023-04-17T20:36:08.908Z,10.43
2023-04-17T20:38:37.599Z,10.28
2023-04-17T20:41:08.006Z,10.32
2023-04-17T20:43:37.005Z,10.02
2023-04-17T20:46:07.117Z,10.01
2023-04-17T20:48:35.680Z,10.03
2023-04-17T20:51:09.441Z,10.11
2023-04-17T20:53:37.690Z,10.12
2023-04-17T20:56:06.066Z,10.15
2023-04-17T20:58:34.506Z,10.19
2023-04-17T21:01:03.400Z,10.23
2023-04-17T21:03:32.494Z,10.19
2023-04-17T21:06:01.232Z,10.15
2023-04-17T21:08:31.255Z,10.21
2023-04-17T21:10:59.390Z,10.03
2023-04-17T21:13:27.976Z,10.13
2023-04-17T21:15:56.174Z,9.98
2023-04-17T21:18:24.187Z,10.06
2023-04-17T21:20:52.247Z,9.92
2023-04-17T21:23:20.649Z,9.98
2023-04-17T21:25:51.981Z,9.87
2023-04-17T21:28:20.134Z,9.88
2023-04-17T21:30:48.410Z,9.82
2023-04-17T21:33:16.868Z,9.84
2023-04-17T21:35:44.956Z,9.74
2023-04-17T21:38:13.946Z,9.75
2023-04-17T21:40:50.873Z,9.72
2023-04-17T21:43:20.941Z,9.76
2023-04-17T21:45:50.133Z,9.75
2023-04-17T21:48:18.479Z,9.59
2023-04-17T21:50:46.885Z,9.64
2023-04-17T21:53:15.284Z,9.56
2023-04-17T21:55:43.426Z,9.30
2023-04-17T21:58:11.449Z,9.23
2023-04-17T22:00:41.154Z,9.31
2023-04-17T22:03:09.483Z,9.10
2023-04-17T22:05:37.808Z,9.02
2023-04-17T22:08:06.425Z,8.98
2023-04-17T22:10:34.751Z,9.01
2023-04-17T22:13:02.947Z,9.09
2023-04-17T22:15:31.377Z,8.97
2023-04-17T22:18:01.108Z,8.93
2023-04-17T22:20:29.241Z,8.84
2023-04-17T22:22:57.426Z,8.93
2023-04-17T22:25:25.867Z,8.91
2023-04-17T22:27:54.052Z,8.95
2023-04-17T22:30:22.650Z,8.91
2023-04-17T22:32:51.243Z,8.93
2023-04-17T22:35:21.074Z,8.96
2023-04-17T22:37:49.344Z,8.95
2023-04-17T22:40:17.598Z,8.80
2023-04-17T22:42:45.881Z,8.74
2023-04-17T22:45:14.061Z,8.68
2023-04-17T22:47:42.179Z,8.58
2023-04-17T22:50:11.162Z,8.60
2023-04-17T22:52:40.998Z,8.61
2023-04-17T22:55:09.984Z,8.56
2023-04-17T22:57:38.287Z,8.40
2023-04-17T23:00:10.603Z,8.41
2023-04-17T23:02:40.647Z,8.29
2023-04-17T23:05:10.514Z,8.34
2023-04-17T23:07:39.568Z,8.36
2023-04-17T23:10:10.100Z,8.19
2023-04-17T23:12:38.020Z,8.19
2023-04-17T23:15:08.468Z,8.12
2023-04-17T23:17:36.900Z,8.03
2023-04-17T23:20:06.667Z,8.10
2023-04-17T23:22:34.891Z,7.95
2023-04-17T23:25:03.076Z,8.04
2023-04-17T23:27:32.920Z,8.09
2023-04-17T23:30:01.125Z,8.00
2023-04-17T23:32:29.387Z,8.01
2023-04-17T23:34:57.613Z,7.97
2023-04-17T23:37:26.096Z,7.97
2023-04-17T23:39:54.238Z,7.92
2023-04-17T23:42:22.460Z,7.95
2023-04-17T23:44:52.190Z,7.71
2023-04-17T23:47:20.294Z,7.79
2023-04-17T23:49:48.786Z,7.74
2023-04-17T23:52:17.116Z,7.66
2023-04-17T23:54:45.050Z,7.58
2023-04-17T23:57:13.362Z,7.65
2023-04-17T23:59:41.468Z,7.62
